sensor_id;sensor_type;location;lat;lon;timestamp;pressure;altitude;pressure_sealevel;temperature;humidity
5679;BME280;2862;52.560;13.566;2023-02-01T00:02:31;100169.25;;;3.82;100.00
5679;BME280;2862;52.560;13.566;2023-02-01T00:12:36;100156.31;;;3.78;100.00
5679;BME280;2862;52.560;13.566;2023-02-01T00:22:39;100175.50;;;3.67;100.00
5679;BME280;2862;52.560;13.566;2023-02-01T00:32:44;100171.09;;;3.67;100.00
5679;BME280;2862;52.560;13.566;2023-02-01T00:42:47;100165.44;;;3.59;100.00
5679;BME280;2862;52.560;13.566;2023-02-01T00:52:51;100172.03;;;3.66;99.39
5679;BME280;2862;52.560;13.566;2023-02-01T01:02:55;100175.38;;;3.97;96.92
5679;BME280;2862;52.560;13.566;2023-02-01T01:12:59;100188.63;;;4.10;96.44
5679;BME280;2862;52.560;13.566;2023-02-01T01:23:03;100168.47;;;3.94;97.11
5679;BME280;2862;52.560;13.566;2023-02-01T01:33:07;100157.94;;;3.80;97.69
5679;BME280;2862;52.560;13.566;2023-02-01T01:43:13;100134.59;;;3.87;97.51
5679;BME280;2862;52.560;13.566;2023-02-01T01:53:21;100139.72;;;3.76;97.24
5679;BME280;2862;52.560;13.566;2023-02-01T02:03:31;100130.25;;;3.86;96.50
5679;BME280;2862;52.560;13.566;2023-02-01T02:13:39;100138.22;;;3.98;96.04
5679;BME280;2862;52.560;13.566;2023-02-01T02:24:08;100140.13;;;3.96;95.61
5679;BME280;2862;52.560;13.566;2023-02-01T02:34:20;100123.06;;;3.88;95.32
5679;BME280;2862;52.560;13.566;2023-02-01T02:44:32;100109.72;;;3.89;94.57
5679;BME280;2862;52.560;13.566;2023-02-01T02:54:57;100114.09;;;3.90;94.87
5679;BME280;2862;52.560;13.566;2023-02-01T03:05:02;100105.94;;;3.93;94.44
5679;BME280;2862;52.560;13.566;2023-02-01T03:15:10;100091.13;;;3.91;94.40
5679;BME280;2862;52.560;13.566;2023-02-01T03:25:21;100082.34;;;3.90;94.54
5679;BME280;2862;52.560;13.566;2023-02-01T03:35:30;100066.81;;;3.98;94.16
5679;BME280;2862;52.560;13.566;2023-02-01T03:45:38;100050.22;;;3.96;94.13
5679;BME280;2862;52.560;13.566;2023-02-01T03:55:46;100046.59;;;3.97;94.11
5679;BME280;2862;52.560;13.566;2023-02-01T04:05:50;100055.94;;;4.03;93.82
5679;BME280;2862;52.560;13.566;2023-02-01T04:15:58;100045.13;;;4.06;93.65
5679;BME280;2862;52.560;13.566;2023-02-01T04:26:02;100038.69;;;4.10;93.44
5679;BME280;2862;52.560;13.566;2023-02-01T04:36:08;100037.13;;;4.20;93.18
5679;BME280;2862;52.560;13.566;2023-02-01T04:46:11;100035.63;;;4.29;92.21
5679;BME280;2862;52.560;13.566;2023-02-01T04:56:16;100025.28;;;4.39;91.59
5679;BME280;2862;52.560;13.566;2023-02-01T05:06:19;100026.97;;;4.52;91.47
5679;BME280;2862;52.560;13.566;2023-02-01T05:16:23;100017.75;;;4.71;90.30
5679;BME280;2862;52.560;13.566;2023-02-01T05:26:26;100005.34;;;4.71;90.03
5679;BME280;2862;52.560;13.566;2023-02-01T05:36:31;99998.03;;;4.75;89.54
5679;BME280;2862;52.560;13.566;2023-02-01T05:46:34;100001.06;;;4.82;89.29
5679;BME280;2862;52.560;13.566;2023-02-01T05:56:39;99999.19;;;4.84;88.88
5679;BME280;2862;52.560;13.566;2023-02-01T06:06:42;99985.09;;;4.83;88.91
5679;BME280;2862;52.560;13.566;2023-02-01T06:16:47;99983.25;;;4.96;87.85
5679;BME280;2862;52.560;13.566;2023-02-01T06:26:50;99986.56;;;4.87;90.64
5679;BME280;2862;52.560;13.566;2023-02-01T06:36:55;99981.19;;;4.63;94.57
5679;BME280;2862;52.560;13.566;2023-02-01T06:46:57;99973.16;;;4.52;96.69
5679;BME280;2862;52.560;13.566;2023-02-01T06:57:02;99955.06;;;4.46;97.94
5679;BME280;2862;52.560;13.566;2023-02-01T07:07:06;99942.91;;;4.43;96.65
5679;BME280;2862;52.560;13.566;2023-02-01T07:17:10;99934.53;;;4.49;95.84
5679;BME280;2862;52.560;13.566;2023-02-01T07:27:13;99932.94;;;4.60;93.88
5679;BME280;2862;52.560;13.566;2023-02-01T07:37:18;99916.94;;;4.61;94.68
5679;BME280;2862;52.560;13.566;2023-02-01T07:47:20;99909.78;;;5.11;97.78
5679;BME280;2862;52.560;13.566;2023-02-01T07:57:25;99894.91;;;5.79;95.78
5679;BME280;2862;52.560;13.566;2023-02-01T08:07:28;99913.81;;;4.80;97.29
5679;BME280;2862;52.560;13.566;2023-02-01T08:17:33;99910.66;;;4.25;100.00
5679;BME280;2862;52.560;13.566;2023-02-01T08:27:36;99928.97;;;4.03;100.00
5679;BME280;2862;52.560;13.566;2023-02-01T08:37:40;99933.31;;;3.79;100.00
5679;BME280;2862;52.560;13.566;2023-02-01T08:47:43;99936.56;;;3.95;100.00
5679;BME280;2862;52.560;13.566;2023-02-01T08:57:47;99932.13;;;3.83;100.00
5679;BME280;2862;52.560;13.566;2023-02-01T09:07:50;99939.97;;;3.84;100.00
5679;BME280;2862;52.560;13.566;2023-02-01T09:17:54;99948.53;;;3.88;100.00
5679;BME280;2862;52.560;13.566;2023-02-01T09:27:57;99964.31;;;4.02;100.00
5679;BME280;2862;52.560;13.566;2023-02-01T09:38:01;99972.72;;;4.58;100.00
5679;BME280;2862;52.560;13.566;2023-02-01T09:48:10;99982.81;;;4.40;100.00
5679;BME280;2862;52.560;13.566;2023-02-01T09:58:20;99989.16;;;4.50;100.00
5679;BME280;2862;52.560;13.566;2023-02-01T10:08:31;99994.69;;;4.60;100.00
5679;BME280;2862;52.560;13.566;2023-02-01T10:18:51;100000.06;;;4.59;100.00
5679;BME280;2862;52.560;13.566;2023-02-01T10:29:01;100004.09;;;4.51;100.00
5679;BME280;2862;52.560;13.566;2023-02-01T10:39:11;100014.69;;;4.39;100.00
5679;BME280;2862;52.560;13.566;2023-02-01T10:49:18;100006.94;;;5.23;100.00
5679;BME280;2862;52.560;13.566;2023-02-01T10:59:25;100005.16;;;5.11;100.00
5679;BME280;2862;52.560;13.566;2023-02-01T11:09:40;99990.09;;;4.75;100.00
5679;BME280;2862;52.560;13.566;2023-02-01T11:19:45;99976.16;;;5.45;99.51
5679;BME280;2862;52.560;13.566;2023-02-01T11:29:50;99980.09;;;5.52;97.91
5679;BME280;2862;52.560;13.566;2023-02-01T11:39:57;99959.31;;;6.16;96.49
5679;BME280;2862;52.560;13.566;2023-02-01T11:50:02;99944.34;;;6.04;96.02
5679;BME280;2862;52.560;13.566;2023-02-01T12:00:23;99926.75;;;6.14;93.87
5679;BME280;2862;52.560;13.566;2023-02-01T12:10:39;99931.78;;;5.95;93.82
5679;BME280;2862;52.560;13.566;2023-02-01T12:21:04;99909.88;;;6.26;90.78
5679;BME280;2862;52.560;13.566;2023-02-01T12:31:27;99886.19;;;6.12;90.19
5679;BME280;2862;52.560;13.566;2023-02-01T12:41:47;99870.41;;;6.10;88.03
5679;BME280;2862;52.560;13.566;2023-02-01T12:51:54;99852.13;;;5.83;92.98
5679;BME280;2862;52.560;13.566;2023-02-01T13:02:01;99869.44;;;5.54;97.34
5679;BME280;2862;52.560;13.566;2023-02-01T13:12:12;99914.50;;;4.95;95.81
5679;BME280;2862;52.560;13.566;2023-02-01T13:22:21;99955.03;;;3.57;97.79
5679;BME280;2862;52.560;13.566;2023-02-01T13:33:03;99901.03;;;3.99;97.16
5679;BME280;2862;52.560;13.566;2023-02-01T13:43:15;99884.97;;;4.02;98.79
5679;BME280;2862;52.560;13.566;2023-02-01T13:53:29;99861.88;;;4.04;100.00
5679;BME280;2862;52.560;13.566;2023-02-01T14:03:45;99834.22;;;4.34;100.00
5679;BME280;2862;52.560;13.566;2023-02-01T14:13:48;99815.81;;;4.80;99.98
5679;BME280;2862;52.560;13.566;2023-02-01T14:23:57;99803.16;;;5.07;97.02
5679;BME280;2862;52.560;13.566;2023-02-01T14:34:05;99797.31;;;4.91;100.00
5679;BME280;2862;52.560;13.566;2023-02-01T14:44:24;99780.47;;;4.92;100.00
5679;BME280;2862;52.560;13.566;2023-02-01T14:54:28;99765.94;;;5.09;100.00
5679;BME280;2862;52.560;13.566;2023-02-01T15:04:41;99736.94;;;5.07;100.00
5679;BME280;2862;52.560;13.566;2023-02-01T15:14:47;99720.38;;;5.39;98.33
5679;BME280;2862;52.560;13.566;2023-02-01T15:24:53;99711.78;;;5.24;97.32
5679;BME280;2862;52.560;13.566;2023-02-01T15:34:56;99733.84;;;4.78;100.00
5679;BME280;2862;52.560;13.566;2023-02-01T15:45:00;99739.78;;;4.58;100.00
5679;BME280;2862;52.560;13.566;2023-02-01T15:55:07;99760.16;;;4.21;100.00
5679;BME280;2862;52.560;13.566;2023-02-01T16:05:31;99788.91;;;3.89;100.00
5679;BME280;2862;52.560;13.566;2023-02-01T16:15:35;99779.75;;;3.31;100.00
5679;BME280;2862;52.560;13.566;2023-02-01T16:25:39;99766.09;;;2.99;100.00
5679;BME280;2862;52.560;13.566;2023-02-01T16:35:42;99763.00;;;2.92;100.00
5679;BME280;2862;52.560;13.566;2023-02-01T16:45:48;99785.19;;;3.02;100.00
5679;BME280;2862;52.560;13.566;2023-02-01T16:55:51;99803.38;;;3.07;100.00
5679;BME280;2862;52.560;13.566;2023-02-01T17:05:55;99805.84;;;3.10;100.00
5679;BME280;2862;52.560;13.566;2023-02-01T17:16:02;99829.78;;;3.07;100.00
5679;BME280;2862;52.560;13.566;2023-02-01T17:26:08;99820.81;;;3.09;100.00
5679;BME280;2862;52.560;13.566;2023-02-01T17:36:13;99827.38;;;3.16;100.00
5679;BME280;2862;52.560;13.566;2023-02-01T17:46:18;99835.53;;;3.26;100.00
5679;BME280;2862;52.560;13.566;2023-02-01T17:56:27;99843.50;;;3.39;100.00
5679;BME280;2862;52.560;13.566;2023-02-01T18:06:33;99861.66;;;3.43;100.00
5679;BME280;2862;52.560;13.566;2023-02-01T18:16:38;99871.06;;;3.60;100.00
5679;BME280;2862;52.560;13.566;2023-02-01T18:26:43;99875.03;;;3.67;100.00
5679;BME280;2862;52.560;13.566;2023-02-01T18:36:46;99860.84;;;3.81;100.00
5679;BME280;2862;52.560;13.566;2023-02-01T18:46:50;99886.03;;;3.74;100.00
5679;BME280;2862;52.560;13.566;2023-02-01T18:56:53;99881.03;;;3.82;100.00
5679;BME280;2862;52.560;13.566;2023-02-01T19:07:11;99885.91;;;3.88;100.00
5679;BME280;2862;52.560;13.566;2023-02-01T19:17:14;99898.72;;;4.07;100.00
5679;BME280;2862;52.560;13.566;2023-02-01T19:27:18;99895.09;;;4.21;100.00
5679;BME280;2862;52.560;13.566;2023-02-01T19:37:20;99902.69;;;4.13;100.00
5679;BME280;2862;52.560;13.566;2023-02-01T19:47:25;99907.81;;;4.03;100.00
5679;BME280;2862;52.560;13.566;2023-02-01T19:57:28;99917.72;;;4.12;100.00
5679;BME280;2862;52.560;13.566;2023-02-01T20:07:32;99911.94;;;4.07;100.00
5679;BME280;2862;52.560;13.566;2023-02-01T20:17:35;99909.63;;;4.03;100.00
5679;BME280;2862;52.560;13.566;2023-02-01T20:27:40;99909.50;;;4.04;100.00
5679;BME280;2862;52.560;13.566;2023-02-01T20:37:43;99901.97;;;4.11;100.00
5679;BME280;2862;52.560;13.566;2023-02-01T20:47:49;99921.03;;;4.16;99.73
5679;BME280;2862;52.560;13.566;2023-02-01T20:57:54;99913.09;;;4.16;99.09
5679;BME280;2862;52.560;13.566;2023-02-01T21:07:58;99934.06;;;4.19;98.93
5679;BME280;2862;52.560;13.566;2023-02-01T21:18:02;99950.13;;;4.16;98.44
5679;BME280;2862;52.560;13.566;2023-02-01T21:28:07;99936.69;;;4.06;98.35
5679;BME280;2862;52.560;13.566;2023-02-01T21:38:10;99936.06;;;4.15;97.63
5679;BME280;2862;52.560;13.566;2023-02-01T21:48:14;99953.63;;;3.91;98.37
5679;BME280;2862;52.560;13.566;2023-02-01T21:58:17;99935.06;;;3.78;98.66
5679;BME280;2862;52.560;13.566;2023-02-01T22:08:21;99937.81;;;3.77;98.43
5679;BME280;2862;52.560;13.566;2023-02-01T22:18:24;99945.66;;;3.78;98.12
5679;BME280;2862;52.560;13.566;2023-02-01T22:28:28;99958.56;;;3.95;96.44
5679;BME280;2862;52.560;13.566;2023-02-01T22:38:34;99950.31;;;4.00;95.15
5679;BME280;2862;52.560;13.566;2023-02-01T22:48:41;99949.59;;;4.11;94.18
5679;BME280;2862;52.560;13.566;2023-02-01T22:58:44;99940.81;;;4.10;93.34
5679;BME280;2862;52.560;13.566;2023-02-01T23:08:48;99902.94;;;4.10;93.63
5679;BME280;2862;52.560;13.566;2023-02-01T23:18:51;99885.50;;;4.07;94.55
5679;BME280;2862;52.560;13.566;2023-02-01T23:28:56;99875.13;;;3.91;95.58
5679;BME280;2862;52.560;13.566;2023-02-01T23:38:59;99890.97;;;4.04;95.51
5679;BME280;2862;52.560;13.566;2023-02-01T23:49:05;99864.53;;;3.91;96.40
5679;BME280;2862;52.560;13.566;2023-02-01T23:59:12;99836.59;;;4.00;95.53
